Time;durP1;ratioP1;P1;durP2;ratioP2;P2;SDS_P1;SDS_P2;PMS_P1;PMS_P2;Temp;Humidity;BMP_temperature;BMP_pressure;BME280_temperature;BME280_humidity;BME280_pressure;Samples;Min_cycle;Max_cycle;Signal;HPM_P1;HPM_P2
2023/02/17 00:00:26;;;;;;;26.35;7.65;;;11.40;99.90;;;;;;10439100;28;20057;-29
2023/02/17 00:05:28;;;;;;;26.90;6.88;;;9.80;99.90;;;;;;10439494;28;20472;-27
2023/02/17 00:10:32;;;;;;;20.00;6.32;;;10.40;99.90;;;;;;10441002;28;20073;-25
2023/02/17 00:15:34;;;;;;;15.15;5.28;;;12.20;99.90;;;;;;10438401;28;20061;-27
2023/02/17 00:20:35;;;;;;;16.67;5.68;;;11.80;99.90;;;;;;10441005;28;20044;-28
2023/02/17 00:25:39;;;;;;;13.25;5.30;;;11.40;99.90;;;;;;10438557;28;20119;-28
2023/02/17 00:30:41;;;;;;;21.60;6.97;;;11.70;99.90;;;;;;10438133;28;20136;-26
2023/02/17 00:35:43;;;;;;;18.52;7.50;;;11.20;99.90;;;;;;10437224;28;20080;-27
2023/02/17 00:40:46;;;;;;;16.25;6.90;;;10.40;99.90;;;;;;10437636;28;20104;-29
2023/02/17 00:45:48;;;;;;;15.20;5.75;;;11.70;99.90;;;;;;10439642;28;20122;-24
2023/02/17 00:50:50;;;;;;;27.63;9.75;;;11.30;99.90;;;;;;10438412;28;20925;-27
2023/02/17 00:55:53;;;;;;;14.55;6.80;;;10.60;99.90;;;;;;10438311;28;20526;-29
2023/02/17 01:00:55;;;;;;;32.70;8.93;;;10.50;99.90;;;;;;10439937;28;20131;-26
2023/02/17 01:05:57;;;;;;;13.27;4.67;;;10.80;99.90;;;;;;10439237;28;20045;-27
2023/02/17 01:11:01;;;;;;;28.97;9.90;;;12.10;99.90;;;;;;10439180;28;20045;-24
2023/02/17 01:16:03;;;;;;;18.92;7.60;;;10.60;99.90;;;;;;10432038;28;20155;-27
2023/02/17 01:21:05;;;;;;;18.88;7.78;;;11.00;99.90;;;;;;10438917;28;20073;-27
2023/02/17 01:26:13;;;;;;;15.00;5.97;;;11.40;99.90;;;;;;10435431;28;20135;-25
2023/02/17 01:31:15;;;;;;;18.80;6.97;;;11.60;99.90;;;;;;10437018;28;20129;-25
2023/02/17 01:36:19;;;;;;;10.43;5.00;;;11.30;99.90;;;;;;10434135;28;20049;-25
2023/02/17 01:41:25;;;;;;;18.88;7.75;;;10.90;99.90;;;;;;10436618;28;20122;-27
2023/02/17 01:46:27;;;;;;;27.42;8.90;;;11.00;99.90;;;;;;10438214;28;20060;-27
2023/02/17 01:51:33;;;;;;;17.40;6.70;;;10.30;99.90;;;;;;10434909;28;20670;-24
2023/02/17 01:56:40;;;;;;;19.33;9.20;;;12.30;99.90;;;;;;10435494;28;20203;-24
2023/02/17 02:01:43;;;;;;;16.10;5.35;;;10.70;99.90;;;;;;10435110;28;20073;-25
2023/02/17 02:06:45;;;;;;;18.90;8.40;;;11.80;99.90;;;;;;10427996;28;20072;-28
2023/02/17 02:11:50;;;;;;;21.95;7.43;;;11.60;99.90;;;;;;10436969;28;20452;-26
2023/02/17 02:16:57;;;;;;;19.20;6.15;;;11.90;99.90;;;;;;10436883;28;20531;-27
2023/02/17 02:22:22;;;;;;;21.42;7.95;;;11.60;99.90;;;;;;10436131;28;20076;-26
2023/02/17 02:27:50;;;;;;;17.15;6.60;;;10.40;99.90;;;;;;10437738;28;20738;-27
2023/02/17 02:32:59;;;;;;;23.23;8.35;;;10.90;99.90;;;;;;10437111;28;20155;-26
2023/02/17 02:38:06;;;;;;;25.02;8.43;;;10.40;99.90;;;;;;10437865;28;20050;-28
2023/02/17 02:43:09;;;;;;;24.05;9.75;;;10.10;99.90;;;;;;10438700;28;20045;-26
2023/02/17 02:48:12;;;;;;;28.90;10.43;;;11.10;99.90;;;;;;10436732;28;20400;-26
2023/02/17 02:53:36;;;;;;;31.48;12.43;;;10.90;99.90;;;;;;10436671;28;20088;-25
2023/02/17 02:58:47;;;;;;;31.00;9.77;;;11.40;99.90;;;;;;10438808;28;20136;-28
2023/02/17 03:03:58;;;;;;;52.63;13.57;;;12.00;99.90;;;;;;10433826;28;20167;-27
2023/02/17 03:09:06;;;;;;;46.75;12.52;;;9.90;99.90;;;;;;10430117;28;20041;-25
2023/02/17 03:14:10;;;;;;;51.60;11.55;;;10.30;99.90;;;;;;10432816;28;20231;-26
2023/02/17 03:19:14;;;;;;;30.92;7.43;;;9.80;99.90;;;;;;10434075;28;20045;-27
2023/02/17 03:24:17;;;;;;;35.03;8.30;;;10.40;99.90;;;;;;10438668;28;20080;-27
2023/02/17 03:29:19;;;;;;;51.20;10.40;;;10.10;99.90;;;;;;10443008;28;20148;-27
2023/02/17 03:34:22;;;;;;;39.00;10.93;;;9.80;99.90;;;;;;10441526;28;20052;-27
2023/02/17 03:39:24;;;;;;;42.22;9.30;;;9.60;99.90;;;;;;10442323;28;20059;-24
2023/02/17 03:44:26;;;;;;;30.23;9.80;;;10.50;99.90;;;;;;10443064;28;20099;-26
2023/02/17 03:49:29;;;;;;;44.03;10.65;;;10.90;99.90;;;;;;10441863;28;20045;-27
2023/02/17 03:54:31;;;;;;;47.13;10.75;;;9.80;99.90;;;;;;10433793;28;20148;-26
2023/02/17 03:59:33;;;;;;;40.03;10.35;;;9.50;99.90;;;;;;10436834;28;20069;-30
2023/02/17 04:04:37;;;;;;;37.72;8.88;;;10.00;99.90;;;;;;10444504;28;20052;-26
2023/02/17 04:09:39;;;;;;;41.05;9.10;;;10.40;99.90;;;;;;10444479;28;20716;-26
2023/02/17 04:14:41;;;;;;;60.85;11.93;;;11.00;99.90;;;;;;10442934;28;20135;-25
2023/02/17 04:19:45;;;;;;;39.63;9.90;;;10.00;99.90;;;;;;10443514;28;20059;-26
2023/02/17 04:24:46;;;;;;;58.92;10.85;;;10.40;99.90;;;;;;10443887;28;20049;-26
2023/02/17 04:29:48;;;;;;;45.20;8.35;;;10.00;99.90;;;;;;10443320;28;20040;-26
2023/02/17 04:34:51;;;;;;;45.33;11.40;;;10.90;99.90;;;;;;10443682;28;20055;-26
2023/02/17 04:39:53;;;;;;;50.17;10.13;;;10.10;99.90;;;;;;10443588;28;20052;-28
2023/02/17 04:44:55;;;;;;;36.53;9.55;;;10.20;99.90;;;;;;10442854;28;20134;-28
2023/02/17 04:49:58;;;;;;;50.10;12.65;;;10.50;99.90;;;;;;10442012;28;20569;-26
2023/02/17 04:55:00;;;;;;;54.90;12.70;;;10.60;99.90;;;;;;10440207;28;20085;-25
2023/02/17 05:00:03;;;;;;;53.60;13.23;;;10.60;99.90;;;;;;10442672;28;20499;-26
2023/02/17 05:05:07;;;;;;;;;;;9.70;99.90;;;;;;10443686;28;20210;-26
2023/02/17 05:10:09;;;;;;;55.05;14.25;;;9.70;99.90;;;;;;10442255;28;20011;-26
2023/02/17 05:15:12;;;;;;;41.72;10.82;;;9.70;99.90;;;;;;10441017;28;20148;-29
2023/02/17 05:20:15;;;;;;;49.95;13.98;;;10.10;99.90;;;;;;10443291;28;20132;-26
2023/02/17 05:25:18;;;;;;;40.20;10.95;;;9.70;99.90;;;;;;10436900;28;20080;-26
2023/02/17 05:30:20;;;;;;;37.55;12.65;;;10.40;99.90;;;;;;10435497;28;20045;-25
2023/02/17 05:35:23;;;;;;;42.40;12.43;;;9.80;99.90;;;;;;10434482;28;20148;-27
2023/02/17 05:40:25;;;;;;;29.65;8.07;;;10.20;99.90;;;;;;10442827;28;20049;-25
2023/02/17 05:45:27;;;;;;;24.30;7.55;;;10.60;99.90;;;;;;10440094;28;20417;-28
2023/02/17 05:50:30;;;;;;;40.75;11.90;;;11.00;99.90;;;;;;10442175;28;20045;-26
2023/02/17 05:55:32;;;;;;;31.90;10.15;;;9.90;99.90;;;;;;10440808;28;20088;-27
2023/02/17 06:00:34;;;;;;;39.50;10.30;;;11.10;99.90;;;;;;10441724;28;20045;-25
2023/02/17 06:05:37;;;;;;;35.75;10.77;;;10.20;99.90;;;;;;10440462;28;20060;-26
2023/02/17 06:10:40;;;;;;;30.75;9.20;;;10.70;99.90;;;;;;10440596;28;20133;-26
2023/02/17 06:15:42;;;;;;;;;;;10.70;99.90;;;;;;10434460;28;20148;-27
2023/02/17 06:20:45;;;;;;;25.90;9.88;;;10.70;99.90;;;;;;10436158;28;20011;-26
2023/02/17 06:25:47;;;;;;;23.95;7.07;;;10.20;99.90;;;;;;10425105;28;20130;-26
2023/02/17 06:30:49;;;;;;;28.50;8.18;;;11.30;99.90;;;;;;10436194;28;20127;-26
2023/02/17 06:35:52;;;;;;;26.40;9.43;;;10.70;99.90;;;;;;10437219;28;20541;-24
2023/02/17 06:40:54;;;;;;;39.75;12.13;;;10.00;99.90;;;;;;10438594;28;20131;-24
2023/02/17 06:45:56;;;;;;;21.45;6.25;;;10.10;99.90;;;;;;10438080;28;20132;-26
2023/02/17 06:51:00;;;;;;;21.58;8.02;;;10.40;99.90;;;;;;10435194;28;20045;-27
2023/02/17 06:56:02;;;;;;;39.25;8.45;;;10.20;99.90;;;;;;10436267;28;20569;-26
2023/02/17 07:01:06;;;;;;;23.25;7.95;;;10.40;99.90;;;;;;10441713;28;20140;-28
2023/02/17 07:15:14;;;;;;;17.58;6.18;;;10.80;99.90;;;;;;10545390;27;1358397;-26
2023/02/17 07:20:16;;;;;;;22.95;7.43;;;11.00;99.90;;;;;;10611325;27;20577;-27
2023/02/17 07:25:18;;;;;;;29.70;8.88;;;10.10;99.90;;;;;;10619171;27;20153;-29
2023/02/17 07:30:21;;;;;;;21.13;7.40;;;10.20;99.90;;;;;;10619112;27;20048;-27
2023/02/17 07:35:23;;;;;;;22.77;8.85;;;10.10;99.90;;;;;;10613391;27;20043;-31
2023/02/17 07:40:26;;;;;;;19.50;7.13;;;10.10;99.90;;;;;;10613733;27;20070;-29
2023/02/17 07:45:29;;;;;;;25.88;7.05;;;10.90;99.90;;;;;;10615178;27;20200;-25
2023/02/17 07:50:31;;;;;;;24.08;6.90;;;10.80;99.90;;;;;;10617175;27;20096;-26
2023/02/17 07:55:33;;;;;;;21.92;7.82;;;11.00;99.90;;;;;;10612882;27;20113;-26
2023/02/17 08:00:36;;;;;;;21.42;6.97;;;10.90;99.90;;;;;;10609416;27;20047;-25
2023/02/17 08:05:40;;;;;;;35.85;9.20;;;10.60;99.90;;;;;;10609483;27;20124;-26
2023/02/17 08:16:02;;;;;;;29.92;8.10;;;10.40;99.90;;;;;;10603814;27;20563;-25
2023/02/17 08:21:05;;;;;;;29.40;6.60;;;11.30;99.90;;;;;;10610006;27;20399;-29
2023/02/17 08:26:07;;;;;;;37.43;9.53;;;10.50;99.90;;;;;;10588794;27;20067;-28
2023/02/17 08:31:16;;;;;;;22.83;6.72;;;10.90;99.90;;;;;;10587944;27;20504;-29
2023/02/17 08:36:21;;;;;;;37.70;9.73;;;11.30;99.90;;;;;;10581919;27;20043;-34
2023/02/17 08:41:25;;;;;;;25.65;6.50;;;9.40;99.90;;;;;;10589882;27;20044;-27
2023/02/17 08:46:29;;;;;;;30.33;8.75;;;10.30;99.90;;;;;;10587429;27;20054;-27
2023/02/17 08:51:31;;;;;;;18.20;6.45;;;10.10;99.90;;;;;;10591212;27;20057;-30
2023/02/17 08:56:34;;;;;;;22.45;5.75;;;11.00;99.90;;;;;;10579959;27;20096;-29
2023/02/17 09:01:37;;;;;;;39.08;9.98;;;10.50;99.90;;;;;;10582379;27;20548;-29
2023/02/17 09:06:42;;;;;;;14.25;5.20;;;10.00;99.90;;;;;;10585579;27;20125;-25
2023/02/17 09:11:45;;;;;;;27.58;7.82;;;11.70;99.90;;;;;;10591396;27;20047;-26
2023/02/17 09:16:48;;;;;;;19.40;6.82;;;10.20;99.90;;;;;;10590028;27;20047;-24
2023/02/17 09:21:50;;;;;;;31.98;9.50;;;10.60;99.90;;;;;;10587463;27;20043;-32
2023/02/17 09:26:52;;;;;;;29.30;7.30;;;10.60;99.90;;;;;;10578907;27;20063;-27
2023/02/17 09:31:55;;;;;;;36.70;11.75;;;11.30;99.90;;;;;;10583671;27;20083;-27
2023/02/17 09:36:57;;;;;;;17.60;7.00;;;10.40;99.90;;;;;;10579495;27;20698;-27
2023/02/17 09:41:59;;;;;;;24.73;7.15;;;10.70;99.90;;;;;;10579717;27;20089;-24
2023/02/17 09:47:05;;;;;;;26.20;8.82;;;11.10;99.90;;;;;;10577094;27;20043;-29
2023/02/17 09:52:12;;;;;;;21.08;6.13;;;11.00;99.90;;;;;;10585542;27;20047;-28
2023/02/17 09:57:19;;;;;;;36.33;8.88;;;11.60;99.90;;;;;;10582225;27;20567;-25
2023/02/17 10:02:32;;;;;;;30.88;7.85;;;10.80;99.90;;;;;;10578597;27;20625;-28
2023/02/17 10:07:38;;;;;;;25.67;6.43;;;11.40;99.90;;;;;;10581084;27;20151;-26
2023/02/17 10:12:46;;;;;;;22.13;4.97;;;10.70;99.90;;;;;;10576854;27;20142;-26
2023/02/17 10:17:56;;;;;;;21.13;4.72;;;12.00;99.90;;;;;;10580660;27;20267;-28
2023/02/17 10:23:04;;;;;;;31.60;7.30;;;11.20;99.90;;;;;;10583228;27;20131;-30
2023/02/17 10:28:09;;;;;;;23.58;6.90;;;11.10;99.90;;;;;;10579861;27;20054;-26
2023/02/17 10:33:20;;;;;;;30.08;5.95;;;11.50;99.90;;;;;;10585393;27;20872;-29
2023/02/17 10:38:37;;;;;;;31.35;7.85;;;11.30;99.90;;;;;;10587674;27;20116;-28
2023/02/17 10:43:40;;;;;;;27.70;5.95;;;10.60;99.90;;;;;;10581244;27;20092;-24
2023/02/17 10:48:48;;;;;;;33.42;7.35;;;11.80;99.90;;;;;;10587545;27;20535;-26
2023/02/17 10:53:54;;;;;;;27.15;5.85;;;10.40;99.90;;;;;;10581201;27;20812;-25
2023/02/17 10:58:59;;;;;;;24.55;5.95;;;11.50;99.90;;;;;;10582939;27;20050;-25
2023/02/17 11:04:06;;;;;;;21.02;4.85;;;10.80;99.90;;;;;;10582399;27;20043;-25
2023/02/17 11:09:22;;;;;;;40.10;8.82;;;11.30;99.90;;;;;;10582331;27;20057;-25
2023/02/17 11:14:27;;;;;;;34.72;6.63;;;10.40;99.90;;;;;;10579583;28;20063;-28
2023/02/17 11:19:32;;;;;;;25.42;5.05;;;11.40;99.90;;;;;;10581551;28;20043;-26
2023/02/17 11:24:37;;;;;;;35.45;7.57;;;12.20;99.90;;;;;;10566716;28;20446;-28
2023/02/17 11:29:39;;;;;;;27.95;5.32;;;11.50;99.90;;;;;;10576692;28;20051;-25
2023/02/17 11:34:43;;;;;;;38.65;8.35;;;12.10;99.90;;;;;;10572527;28;20672;-26
2023/02/17 11:39:48;;;;;;;34.28;6.50;;;10.50;99.90;;;;;;10572548;28;20458;-28
2023/02/17 11:44:50;;;;;;;32.78;5.40;;;11.60;99.90;;;;;;10579644;28;20051;-25
2023/02/17 11:50:11;;;;;;;28.33;6.13;;;11.70;99.90;;;;;;10583500;28;20059;-30
2023/02/17 11:55:20;;;;;;;34.95;5.88;;;11.60;99.90;;;;;;10581148;28;20395;-28
2023/02/17 12:00:26;;;;;;;16.25;3.95;;;11.70;99.90;;;;;;10585633;27;20043;-26
2023/02/17 12:05:41;;;;;;;40.90;6.18;;;12.10;99.90;;;;;;10585634;27;20135;-27
2023/02/17 12:10:55;;;;;;;33.05;5.40;;;11.70;99.90;;;;;;10588852;27;20422;-30
2023/02/17 12:16:11;;;;;;;46.15;7.57;;;12.50;99.90;;;;;;10589328;27;20087;-27
2023/02/17 12:21:34;;;;;;;27.00;3.50;;;10.80;99.90;;;;;;10587473;27;20071;-26
2023/02/17 12:26:39;;;;;;;24.13;5.07;;;11.80;99.90;;;;;;10587801;27;20097;-28
2023/02/17 12:31:59;;;;;;;36.65;5.18;;;11.40;99.90;;;;;;10587431;27;20084;-26
2023/02/17 12:37:06;;;;;;;31.73;4.25;;;11.30;99.90;;;;;;10586240;27;20150;-27
2023/02/17 12:42:16;;;;;;;15.85;3.67;;;12.20;99.90;;;;;;10588316;27;20051;-31
2023/02/17 12:47:25;;;;;;;28.42;5.28;;;11.80;99.90;;;;;;10585485;27;20063;-26
2023/02/17 12:52:32;;;;;;;27.17;4.63;;;11.40;99.90;;;;;;10584769;27;20087;-26
2023/02/17 12:57:41;;;;;;;42.55;5.88;;;11.60;99.90;;;;;;10589037;27;20073;-30
2023/02/17 13:02:43;;;;;;;36.40;4.40;;;11.60;99.90;;;;;;10591179;27;20161;-29
2023/02/17 13:07:51;;;;;;;22.97;4.30;;;11.40;99.90;;;;;;10587124;27;20142;-30
2023/02/17 13:13:00;;;;;;;27.88;5.00;;;11.90;99.90;;;;;;10589939;27;20090;-28
2023/02/17 13:18:04;;;;;;;25.90;4.68;;;11.90;99.90;;;;;;10591647;27;20467;-28
2023/02/17 13:23:11;;;;;;;31.23;4.85;;;11.70;99.90;;;;;;10585736;27;20042;-27
2023/02/17 13:28:35;;;;;;;26.88;4.18;;;12.00;99.90;;;;;;10588535;27;20043;-26
2023/02/17 13:33:42;;;;;;;35.83;5.95;;;12.00;99.90;;;;;;10587697;27;20083;-29
2023/02/17 13:38:58;;;;;;;30.52;5.15;;;11.50;99.90;;;;;;10580469;27;20051;-31
2023/02/17 13:44:18;;;;;;;20.70;4.28;;;11.30;99.90;;;;;;10587545;27;20139;-25
2023/02/17 13:49:23;;;;;;;27.15;3.70;;;11.80;99.90;;;;;;10575793;27;20050;-28
2023/02/17 13:54:29;;;;;;;22.17;3.72;;;11.60;99.90;;;;;;10592625;27;20039;-28
2023/02/17 13:59:31;;;;;;;39.10;5.00;;;11.60;99.90;;;;;;10584843;27;20054;-26
2023/02/17 14:04:33;;;;;;;20.85;3.08;;;11.70;99.90;;;;;;10579841;27;20530;-26
2023/02/17 14:09:42;;;;;;;20.70;4.05;;;11.40;99.90;;;;;;10580994;27;20067;-25
2023/02/17 14:14:44;;;;;;;32.80;4.60;;;12.10;99.90;;;;;;10585591;27;20051;-24
2023/02/17 14:19:47;;;;;;;29.63;4.27;;;11.80;99.90;;;;;;10582223;27;20134;-25
2023/02/17 14:24:59;;;;;;;;;;;11.80;99.90;;;;;;10588653;27;20051;-26
2023/02/17 14:30:01;;;;;;;25.50;4.28;;;11.60;99.90;;;;;;10586562;27;19965;-26
2023/02/17 14:35:22;;;;;;;30.35;4.13;;;12.60;99.90;;;;;;10584686;27;20147;-28
2023/02/17 14:40:25;;;;;;;25.90;3.70;;;12.40;99.90;;;;;;10583482;27;20086;-27
2023/02/17 14:45:27;;;;;;;22.88;4.90;;;12.30;99.90;;;;;;10583851;27;20134;-27
2023/02/17 14:50:31;;;;;;;27.70;5.05;;;12.60;99.90;;;;;;10584231;27;20047;-29
2023/02/17 14:55:37;;;;;;;22.95;3.55;;;12.20;99.90;;;;;;10583527;27;20058;-30
2023/02/17 15:00:39;;;;;;;29.38;4.28;;;13.50;99.90;;;;;;10580271;27;20048;-24
2023/02/17 15:05:42;;;;;;;28.33;3.67;;;13.10;99.90;;;;;;10583325;27;20336;-27
2023/02/17 15:10:45;;;;;;;33.83;4.63;;;12.90;99.90;;;;;;10584221;27;20063;-25
2023/02/17 15:15:48;;;;;;;21.05;3.50;;;12.40;99.90;;;;;;10581836;28;20085;-28
2023/02/17 15:20:52;;;;;;;25.95;4.38;;;13.30;99.90;;;;;;10582961;28;20533;-27
2023/02/17 15:25:56;;;;;;;28.00;4.50;;;12.70;99.90;;;;;;10585619;28;20055;-27
2023/02/17 15:30:58;;;;;;;26.77;3.95;;;12.50;99.90;;;;;;10583533;28;20055;-26
2023/02/17 15:36:00;;;;;;;22.40;3.85;;;12.90;99.90;;;;;;10591699;27;20043;-26
2023/02/17 15:41:04;;;;;;;20.35;4.30;;;12.80;99.90;;;;;;10591832;27;20548;-25
2023/02/17 15:46:13;;;;;;;23.45;3.80;;;12.20;99.90;;;;;;10590336;27;20100;-30
2023/02/17 15:51:18;;;;;;;23.67;3.83;;;13.50;99.90;;;;;;10588432;27;20079;-26
2023/02/17 15:56:23;;;;;;;18.02;3.05;;;13.90;99.90;;;;;;10589972;27;20048;-27
2023/02/17 16:01:28;;;;;;;23.30;3.78;;;13.10;99.90;;;;;;10579166;27;20400;-26
2023/02/17 16:06:30;;;;;;;34.88;4.63;;;12.50;99.90;;;;;;10593979;27;20070;-26
2023/02/17 16:11:35;;;;;;;35.35;4.70;;;12.00;99.90;;;;;;10590024;27;20050;-27
2023/02/17 16:16:36;;;;;;;15.75;3.35;;;13.00;99.90;;;;;;10589827;27;20071;-29
2023/02/17 16:21:38;;;;;;;22.40;4.32;;;13.20;99.90;;;;;;10591658;27;20528;-26
2023/02/17 16:26:42;;;;;;;15.00;3.10;;;12.20;99.90;;;;;;10588138;27;20518;-28
2023/02/17 16:31:45;;;;;;;34.20;4.75;;;13.30;99.90;;;;;;10589660;27;20445;-26
2023/02/17 16:36:48;;;;;;;18.60;3.90;;;11.60;99.90;;;;;;10590257;27;20522;-28
2023/02/17 16:41:51;;;;;;;28.77;5.05;;;12.40;99.90;;;;;;10590013;27;20051;-27
2023/02/17 16:46:54;;;;;;;21.42;3.95;;;11.30;99.90;;;;;;10588516;27;20141;-27
2023/02/17 16:51:56;;;;;;;20.48;4.45;;;11.70;99.90;;;;;;10588775;27;20051;-30
2023/02/17 16:56:59;;;;;;;25.67;3.35;;;11.60;99.90;;;;;;10588468;27;20503;-30
2023/02/17 17:02:02;;;;;;;21.80;2.78;;;13.30;99.90;;;;;;10590941;27;20044;-28
2023/02/17 17:07:04;;;;;;;26.95;3.17;;;12.70;99.90;;;;;;10587011;27;20075;-26
2023/02/17 17:12:07;;;;;;;19.93;3.60;;;13.10;99.90;;;;;;10572489;27;20051;-27
2023/02/17 17:17:11;;;;;;;18.95;3.58;;;12.80;99.90;;;;;;10586515;27;20039;-27
2023/02/17 17:22:13;;;;;;;28.63;4.15;;;12.20;99.90;;;;;;10582805;27;20070;-27
2023/02/17 17:27:16;;;;;;;16.90;2.85;;;11.70;99.90;;;;;;10588040;27;20047;-26
2023/02/17 17:32:18;;;;;;;24.63;3.40;;;12.10;99.90;;;;;;10585550;27;20059;-27
2023/02/17 17:37:20;;;;;;;28.58;3.45;;;11.70;99.90;;;;;;10576077;27;20137;-25
2023/02/17 17:42:23;;;;;;;14.15;2.55;;;11.50;99.90;;;;;;10576950;27;20169;-31
2023/02/17 17:47:25;;;;;;;26.92;4.25;;;12.30;99.90;;;;;;10586732;27;20124;-28
2023/02/17 17:52:27;;;;;;;20.13;4.30;;;12.60;99.90;;;;;;10587413;27;20043;-25
2023/02/17 17:57:30;;;;;;;31.23;4.57;;;12.40;99.90;;;;;;10584590;27;20046;-28
2023/02/17 18:02:32;;;;;;;12.93;2.78;;;11.80;99.90;;;;;;10586300;27;20086;-29
2023/02/17 18:07:34;;;;;;;28.58;4.95;;;12.10;99.90;;;;;;10578246;27;20445;-27
2023/02/17 18:12:38;;;;;;;15.07;3.15;;;12.10;99.90;;;;;;10577770;27;20055;-28
2023/02/17 18:17:42;;;;;;;21.77;4.25;;;11.70;99.90;;;;;;10586626;27;20070;-27
2023/02/17 18:22:44;;;;;;;26.85;4.15;;;11.20;99.90;;;;;;10587676;27;20505;-28
2023/02/17 18:27:47;;;;;;;27.88;4.63;;;11.10;99.90;;;;;;10587955;27;20046;-25
2023/02/17 18:32:50;;;;;;;41.00;5.10;;;10.80;99.90;;;;;;10588435;27;20071;-26
2023/02/17 18:37:52;;;;;;;29.38;4.43;;;10.70;99.90;;;;;;10585989;27;20463;-29
2023/02/17 18:42:56;;;;;;;28.60;4.95;;;10.60;99.90;;;;;;10587245;27;20483;-26
2023/02/17 18:47:58;;;;;;;35.28;4.18;;;10.40;99.90;;;;;;10586023;27;20070;-26
2023/02/17 18:53:00;;;;;;;30.25;5.13;;;10.80;99.90;;;;;;10584982;27;20147;-27
2023/02/17 18:58:03;;;;;;;29.70;6.03;;;11.10;99.90;;;;;;10586087;27;20139;-26
2023/02/17 19:03:05;;;;;;;39.10;5.78;;;10.70;99.90;;;;;;10584132;27;20407;-26
2023/02/17 19:08:07;;;;;;;32.42;5.10;;;10.40;99.90;;;;;;10575523;27;20138;-28
2023/02/17 19:13:11;;;;;;;24.03;5.60;;;12.20;99.90;;;;;;10581869;27;20129;-24
2023/02/17 19:18:13;;;;;;;40.00;7.22;;;11.80;99.90;;;;;;10585361;28;20681;-30
2023/02/17 19:23:15;;;;;;;37.17;6.82;;;10.60;99.90;;;;;;10587309;28;20138;-26
2023/02/17 19:28:18;;;;;;;53.33;8.90;;;10.40;99.90;;;;;;10582707;28;20070;-26
2023/02/17 19:33:20;;;;;;;22.63;4.47;;;10.50;99.90;;;;;;10583082;28;20146;-29
2023/02/17 19:38:22;;;;;;;51.70;9.15;;;10.80;99.90;;;;;;10576511;28;20047;-28
2023/02/17 19:43:25;;;;;;;35.20;6.38;;;11.10;99.90;;;;;;10585509;28;20039;-27
2023/02/17 19:48:28;;;;;;;37.13;5.35;;;10.60;99.90;;;;;;10578331;27;20738;-24
2023/02/17 19:53:32;;;;;;;16.70;4.88;;;10.90;99.90;;;;;;10581603;28;20419;-26
2023/02/17 19:58:35;;;;;;;40.58;8.30;;;12.70;99.90;;;;;;10585027;28;20043;-27
2023/02/17 20:03:37;;;;;;;41.22;7.63;;;12.20;99.90;;;;;;10582477;28;20202;-28
2023/02/17 20:08:39;;;;;;;30.03;7.13;;;12.00;99.90;;;;;;10577551;28;20047;-31
2023/02/17 20:13:43;;;;;;;36.67;6.22;;;12.30;99.90;;;;;;10585434;28;20526;-27
2023/02/17 20:18:47;;;;;;;25.63;4.47;;;12.20;99.90;;;;;;10584214;27;20051;-27
2023/02/17 20:23:49;;;;;;;32.58;6.10;;;12.60;99.90;;;;;;10589686;27;20411;-26
2023/02/17 20:28:53;;;;;;;23.30;4.85;;;13.60;99.90;;;;;;10587245;27;20614;-25
2023/02/17 20:33:55;;;;;;;33.45;6.40;;;13.60;99.90;;;;;;10569941;27;20132;-26
2023/02/17 20:38:57;;;;;;;29.93;4.67;;;13.30;99.90;;;;;;10596479;27;20048;-26
2023/02/17 20:44:01;;;;;;;25.17;4.07;;;13.20;99.90;;;;;;10594128;27;20499;-26
2023/02/17 20:49:03;;;;;;;30.23;5.00;;;12.90;99.90;;;;;;10604794;27;20043;-29
2023/02/17 20:54:05;;;;;;;28.67;5.03;;;13.10;99.90;;;;;;10598204;27;20070;-28
2023/02/17 20:59:11;;;;;;;25.65;4.30;;;12.10;99.90;;;;;;10603479;27;20093;-27
2023/02/17 21:04:14;;;;;;;19.45;3.63;;;12.90;99.90;;;;;;10605454;27;20054;-27
2023/02/17 21:09:18;;;;;;;35.90;6.00;;;14.30;99.90;;;;;;10602083;27;20059;-27
2023/02/17 21:14:21;;;;;;;29.83;5.82;;;14.20;99.90;;;;;;10606596;27;20126;-26
2023/02/17 21:19:23;;;;;;;21.50;3.67;;;14.50;99.90;;;;;;10592905;27;20198;-27
2023/02/17 21:24:25;;;;;;;29.90;4.87;;;15.10;99.90;;;;;;10596108;27;20391;-27
2023/02/17 21:29:28;;;;;;;23.83;3.97;;;13.90;99.90;;;;;;10590235;27;20075;-28
2023/02/17 21:34:30;;;;;;;18.60;4.35;;;14.30;99.90;;;;;;10603491;27;20086;-27
2023/02/17 21:39:32;;;;;;;30.30;5.47;;;13.90;99.90;;;;;;10600873;27;20126;-28
2023/02/17 21:44:52;;;;;;;26.80;4.67;;;12.10;99.90;;;;;;10593245;27;20108;-26
2023/02/17 21:49:54;;;;;;;28.05;5.28;;;11.80;99.90;;;;;;10591731;27;20079;-27
2023/02/17 21:54:56;;;;;;;14.80;3.53;;;11.20;99.90;;;;;;10594735;27;20086;-29
2023/02/17 22:00:00;;;;;;;20.13;4.32;;;12.40;99.90;;;;;;10576308;27;20046;-28
2023/02/17 22:05:02;;;;;;;26.65;4.68;;;11.90;99.90;;;;;;10587682;27;20047;-26
2023/02/17 22:10:06;;;;;;;36.92;7.28;;;11.90;99.90;;;;;;10604334;27;20043;-29
2023/02/17 22:15:10;;;;;;;38.00;7.57;;;11.10;99.90;;;;;;10590863;27;20083;-27
2023/02/17 22:20:13;;;;;;;49.28;7.85;;;11.20;99.90;;;;;;10596238;27;20515;-28
2023/02/17 22:25:15;;;;;;;34.75;6.70;;;12.00;99.90;;;;;;10601071;27;20846;-27
2023/02/17 22:30:19;;;;;;;30.35;5.78;;;11.70;99.90;;;;;;10597216;27;20128;-29
2023/02/17 22:35:21;;;;;;;37.45;5.53;;;11.60;99.90;;;;;;10592668;27;20420;-26
2023/02/17 22:40:23;;;;;;;22.00;4.85;;;11.70;99.90;;;;;;10591816;27;20104;-26
2023/02/17 22:45:26;;;;;;;34.40;6.38;;;12.50;99.90;;;;;;10575556;27;20044;-27
2023/02/17 22:50:28;;;;;;;41.67;8.85;;;13.10;99.90;;;;;;10591251;27;20127;-26
2023/02/17 22:55:30;;;;;;;30.58;8.15;;;11.80;99.90;;;;;;10602841;27;20052;-29
2023/02/17 23:00:33;;;;;;;45.90;10.98;;;11.40;99.90;;;;;;10590049;27;20139;-27
2023/02/17 23:05:35;;;;;;;39.50;10.57;;;11.30;99.90;;;;;;10581384;27;20089;-27
2023/02/17 23:10:40;;;;;;;27.73;7.75;;;12.60;99.90;;;;;;10598472;27;20107;-26
2023/02/17 23:15:43;;;;;;;26.20;9.10;;;12.40;99.90;;;;;;10602293;27;20059;-32
2023/02/17 23:20:46;;;;;;;23.02;6.97;;;12.90;99.90;;;;;;10593464;27;20109;-30
2023/02/17 23:25:50;;;;;;;43.85;13.55;;;12.60;99.90;;;;;;10598065;28;20911;-30
2023/02/17 23:30:53;;;;;;;32.35;10.73;;;11.40;99.90;;;;;;10593260;28;20153;-28
2023/02/17 23:35:55;;;;;;;20.40;5.18;;;12.80;99.90;;;;;;10591838;28;20050;-28
2023/02/17 23:40:57;;;;;;;34.55;12.48;;;14.00;99.90;;;;;;10598503;28;20490;-26
2023/02/17 23:46:01;;;;;;;31.20;11.23;;;11.90;99.90;;;;;;10579842;28;20544;-29
2023/02/17 23:51:05;;;;;;;25.00;9.63;;;11.50;99.90;;;;;;10595143;28;20036;-28
2023/02/17 23:56:10;;;;;;;23.98;9.25;;;11.40;99.90;;;;;;10604051;27;20066;-26
